Time;durP1;ratioP1;P1;durP2;ratioP2;P2;SDS_P1;SDS_P2;PMS_P1;PMS_P2;Temp;Humidity;BMP_temperature;BMP_pressure;BME280_temperature;BME280_humidity;BME280_pressure;Samples;Min_cycle;Max_cycle;Signal;HPM_P1;HPM_P2
2021/06/26 00:01:00;;;;;;;4.60;2.83;;;17.00;98.00;;;;;;5072037;28;20463;-72
2021/06/26 00:03:29;;;;;;;2.13;1.73;;;17.10;98.00;;;;;;5069245;28;20510;-72
2021/06/26 00:05:58;;;;;;;1.57;1.30;;;17.10;98.00;;;;;;5071996;28;20489;-72
2021/06/26 00:08:28;;;;;;;1.63;1.57;;;17.30;98.00;;;;;;5069186;28;20456;-72
2021/06/26 00:10:56;;;;;;;3.50;1.90;;;17.20;98.00;;;;;;5071827;28;20534;-72
2021/06/26 00:13:24;;;;;;;1.30;1.30;;;17.20;98.00;;;;;;5069231;28;20485;-72
2021/06/26 00:15:51;;;;;;;3.80;1.97;;;17.20;98.00;;;;;;5071834;28;20514;-72
2021/06/26 00:18:18;;;;;;;2.67;2.10;;;17.20;98.00;;;;;;5069189;28;20510;-72
2021/06/26 00:20:46;;;;;;;2.03;1.53;;;17.20;98.00;;;;;;5071368;28;20509;-73
2021/06/26 00:23:14;;;;;;;1.87;1.40;;;17.20;98.00;;;;;;5069211;28;20837;-72
2021/06/26 00:25:42;;;;;;;3.70;1.97;;;17.10;98.00;;;;;;5071536;28;20453;-73
2021/06/26 00:28:09;;;;;;;2.60;1.70;;;17.10;98.00;;;;;;5068860;28;20489;-72
2021/06/26 00:30:38;;;;;;;1.87;1.70;;;17.10;98.00;;;;;;5070880;28;20558;-72
2021/06/26 00:33:05;;;;;;;1.43;1.40;;;17.00;98.00;;;;;;5051112;28;20484;-72
2021/06/26 00:35:33;;;;;;;3.20;1.63;;;17.10;98.00;;;;;;5071182;28;20479;-72
2021/06/26 00:38:00;;;;;;;3.20;1.70;;;17.10;98.00;;;;;;5068554;28;20905;-72
2021/06/26 00:40:27;;;;;;;1.57;1.40;;;17.10;98.00;;;;;;5071107;28;20456;-71
2021/06/26 00:42:55;;;;;;;3.20;1.83;;;17.20;98.00;;;;;;5068334;28;20574;-72
2021/06/26 00:45:25;;;;;;;2.10;1.90;;;17.20;98.00;;;;;;5071049;28;20480;-72
2021/06/26 00:47:52;;;;;;;2.23;1.90;;;17.20;98.00;;;;;;5068958;28;20522;-72
2021/06/26 00:50:23;;;;;;;2.07;1.73;;;17.20;98.00;;;;;;5071312;28;20799;-72
2021/06/26 00:52:52;;;;;;;2.40;1.47;;;17.10;98.00;;;;;;5068810;28;20457;-72
2021/06/26 00:55:20;;;;;;;2.47;1.50;;;17.10;98.00;;;;;;5071367;28;20778;-72
2021/06/26 00:57:53;;;;;;;2.80;1.67;;;17.00;98.00;;;;;;5068652;28;20488;-72
2021/06/26 01:00:24;;;;;;;3.20;1.70;;;17.00;98.00;;;;;;5071465;28;20464;-72
2021/06/26 01:02:51;;;;;;;2.13;1.60;;;16.90;98.00;;;;;;5068813;28;20460;-72
2021/06/26 01:05:18;;;;;;;1.60;1.50;;;16.80;98.00;;;;;;5071221;28;20495;-72
2021/06/26 01:07:46;;;;;;;2.70;1.93;;;16.90;98.00;;;;;;5068934;28;20558;-72
2021/06/26 01:10:18;;;;;;;2.40;1.43;;;16.90;98.00;;;;;;5070939;28;20484;-72
2021/06/26 01:12:45;;;;;;;2.63;1.80;;;17.00;98.00;;;;;;5068816;28;20539;-72
2021/06/26 01:15:16;;;;;;;2.17;1.60;;;17.00;98.00;;;;;;5071260;28;20935;-72
2021/06/26 01:17:45;;;;;;;3.90;2.03;;;16.90;98.00;;;;;;5068532;28;20517;-71
2021/06/26 01:20:14;;;;;;;3.37;1.80;;;16.80;98.00;;;;;;5071230;28;20457;-72
2021/06/26 01:22:44;;;;;;;1.70;1.60;;;16.60;98.00;;;;;;5068350;28;20491;-72
2021/06/26 01:25:13;;;;;;;2.60;1.57;;;16.50;98.00;;;;;;5070963;28;20457;-72
2021/06/26 01:27:40;;;;;;;1.67;1.30;;;16.50;98.00;;;;;;5068294;28;20452;-72
2021/06/26 01:30:08;;;;;;;1.87;1.30;;;16.40;98.00;;;;;;5070671;28;20515;-72
2021/06/26 01:35:57;;;;;;;1.80;1.70;;;16.50;98.00;;;;;;5070837;28;20423;-72
2021/06/26 01:38:28;;;;;;;1.63;1.47;;;16.60;98.00;;;;;;5068111;28;20453;-73
2021/06/26 01:40:55;;;;;;;3.93;2.13;;;16.70;98.00;;;;;;5072431;28;20462;-72
2021/06/26 01:43:22;;;;;;;2.20;1.50;;;16.90;98.00;;;;;;5071911;28;20868;-72
2021/06/26 01:45:49;;;;;;;2.47;2.33;;;16.90;98.00;;;;;;5074414;28;20460;-72
2021/06/26 01:48:17;;;;;;;2.17;1.67;;;16.90;98.00;;;;;;5071581;28;20882;-72
2021/06/26 01:50:46;;;;;;;1.60;1.50;;;16.90;98.00;;;;;;5072547;28;20481;-71
2021/06/26 01:53:18;;;;;;;2.10;1.40;;;17.00;98.00;;;;;;5071504;28;20457;-72
2021/06/26 01:55:47;;;;;;;5.00;1.60;;;16.90;98.00;;;;;;5074246;28;20499;-72
2021/06/26 01:58:14;;;;;;;2.67;1.80;;;17.00;98.00;;;;;;5071559;28;20864;-72
2021/06/26 02:00:41;;;;;;;1.83;1.30;;;17.00;98.00;;;;;;5074258;28;20558;-72
2021/06/26 02:03:09;;;;;;;1.30;1.30;;;17.00;98.00;;;;;;5071419;28;20452;-73
2021/06/26 02:05:36;;;;;;;2.13;1.23;;;17.00;98.00;;;;;;5074232;28;20461;-71
2021/06/26 02:08:03;;;;;;;2.27;1.40;;;17.00;98.00;;;;;;5071293;28;20464;-72
2021/06/26 02:10:30;;;;;;;1.70;1.50;;;17.10;98.00;;;;;;5074188;28;21245;-71
2021/06/26 02:12:59;;;;;;;3.00;1.80;;;17.00;98.00;;;;;;5071427;28;20518;-71
2021/06/26 02:15:26;;;;;;;1.83;1.40;;;17.00;98.00;;;;;;5073939;28;20453;-72
2021/06/26 02:17:54;;;;;;;1.90;1.70;;;16.80;98.00;;;;;;5071111;28;20518;-72
2021/06/26 02:20:22;;;;;;;2.03;1.40;;;16.70;98.00;;;;;;5073790;28;20449;-72
2021/06/26 02:22:49;;;;;;;2.67;1.40;;;16.60;98.00;;;;;;5070800;28;20517;-72
2021/06/26 02:25:19;;;;;;;2.77;1.40;;;16.70;98.00;;;;;;5073735;28;20452;-73
2021/06/26 02:27:48;;;;;;;1.87;1.70;;;16.80;98.00;;;;;;5069783;28;20457;-72
2021/06/26 02:30:17;;;;;;;1.77;1.27;;;16.80;98.00;;;;;;5073435;28;20512;-71
2021/06/26 02:32:45;;;;;;;2.70;1.80;;;16.80;98.00;;;;;;5070573;28;20456;-72
2021/06/26 02:35:12;;;;;;;1.70;1.60;;;16.80;98.00;;;;;;5073356;28;20461;-72
2021/06/26 02:37:40;;;;;;;1.90;1.53;;;16.80;98.00;;;;;;5070641;28;20831;-72
2021/06/26 02:40:09;;;;;;;2.63;1.70;;;16.80;98.00;;;;;;5073450;28;20465;-72
2021/06/26 02:42:36;;;;;;;3.20;1.93;;;16.80;98.00;;;;;;5070628;28;20456;-72
2021/06/26 02:45:03;;;;;;;1.30;1.30;;;16.80;98.00;;;;;;5073368;28;20449;-71
2021/06/26 02:47:32;;;;;;;1.90;1.40;;;16.80;98.00;;;;;;5070807;28;20517;-72
2021/06/26 02:49:59;;;;;;;1.77;1.47;;;16.80;98.00;;;;;;5072023;28;20597;-72
2021/06/26 02:52:26;;;;;;;1.77;1.50;;;16.90;98.00;;;;;;5069846;28;21012;-72
2021/06/26 02:54:53;;;;;;;2.07;1.87;;;16.90;98.00;;;;;;5073067;28;20511;-72
2021/06/26 02:57:20;;;;;;;1.43;1.37;;;16.80;98.00;;;;;;5070360;28;20537;-72
2021/06/26 02:59:48;;;;;;;3.27;1.63;;;16.80;98.00;;;;;;5073265;28;20518;-72
2021/06/26 03:02:16;;;;;;;1.83;1.83;;;16.70;98.00;;;;;;5070245;28;21110;-71
2021/06/26 03:04:44;;;;;;;1.90;1.47;;;16.60;98.00;;;;;;5073092;28;20460;-72
2021/06/26 03:07:12;;;;;;;2.70;1.70;;;16.60;98.00;;;;;;5070216;28;20452;-71
2021/06/26 03:09:39;;;;;;;1.77;1.50;;;16.50;98.00;;;;;;5072886;28;20461;-72
2021/06/26 03:12:07;;;;;;;1.77;1.50;;;16.50;98.00;;;;;;5069918;28;20510;-72
2021/06/26 03:14:34;;;;;;;2.30;1.73;;;16.50;98.00;;;;;;5072777;28;20452;-72
2021/06/26 03:17:03;;;;;;;1.50;1.40;;;16.50;98.00;;;;;;5071407;28;20457;-73
2021/06/26 03:19:30;;;;;;;1.60;1.50;;;16.50;98.00;;;;;;5072280;28;20937;-72
2021/06/26 03:21:58;;;;;;;3.20;1.93;;;16.50;98.00;;;;;;5072645;28;20459;-72
2021/06/26 03:24:27;;;;;;;2.00;1.67;;;16.60;98.00;;;;;;5069802;28;20461;-72
2021/06/26 03:26:56;;;;;;;1.30;1.10;;;16.70;98.00;;;;;;5072580;28;20962;-72
2021/06/26 03:29:24;;;;;;;2.70;1.90;;;16.60;98.00;;;;;;5069534;28;20468;-71
2021/06/26 03:31:51;;;;;;;1.60;1.40;;;16.60;98.00;;;;;;5072189;28;20519;-72
2021/06/26 03:34:19;;;;;;;1.90;1.53;;;16.50;98.00;;;;;;5069418;28;20502;-72
2021/06/26 03:36:49;;;;;;;2.80;1.47;;;16.50;98.00;;;;;;5072468;28;20464;-71
2021/06/26 03:39:18;;;;;;;1.63;1.57;;;16.70;98.00;;;;;;5068974;28;20475;-72
2021/06/26 03:41:45;;;;;;;2.17;1.47;;;16.60;98.00;;;;;;5072018;28;20457;-72
2021/06/26 03:44:12;;;;;;;1.90;1.57;;;16.70;98.00;;;;;;5068714;28;20449;-72
2021/06/26 03:46:39;;;;;;;4.47;1.97;;;16.70;98.00;;;;;;5071616;28;20525;-71
2021/06/26 03:49:07;;;;;;;1.80;1.70;;;16.70;98.00;;;;;;5068530;28;20465;-72
2021/06/26 03:51:34;;;;;;;4.00;2.20;;;16.60;98.00;;;;;;5071221;28;20477;-72
2021/06/26 03:54:01;;;;;;;1.67;1.20;;;16.60;98.00;;;;;;5069523;28;20457;-72
2021/06/26 03:56:29;;;;;;;1.63;1.57;;;16.60;98.00;;;;;;5072061;28;20456;-72
2021/06/26 03:58:56;;;;;;;2.13;1.47;;;16.60;98.00;;;;;;5068438;28;20499;-72
2021/06/26 04:01:24;;;;;;;2.50;1.87;;;16.60;98.00;;;;;;5071687;28;21030;-72
2021/06/26 04:03:51;;;;;;;1.93;1.70;;;16.60;98.00;;;;;;5067645;28;20460;-72
2021/06/26 04:06:18;;;;;;;1.50;1.30;;;16.50;98.00;;;;;;5071648;28;20872;-72
2021/06/26 04:08:45;;;;;;;2.33;1.40;;;16.50;98.00;;;;;;5068018;28;20587;-72
2021/06/26 04:11:13;;;;;;;4.53;2.00;;;16.60;98.00;;;;;;5071509;28;21029;-72
2021/06/26 04:13:42;;;;;;;1.93;1.53;;;16.50;98.00;;;;;;5068113;28;20559;-72
2021/06/26 04:16:09;;;;;;;1.70;1.50;;;16.40;98.00;;;;;;5071628;28;20456;-71
2021/06/26 04:18:36;;;;;;;2.80;1.80;;;16.50;98.00;;;;;;5068953;28;20510;-71
2021/06/26 04:21:04;;;;;;;1.20;1.10;;;16.60;98.00;;;;;;5071437;28;20461;-72
2021/06/26 04:23:45;;;;;;;1.50;1.43;;;16.80;98.00;;;;;;5068568;28;20460;-71
2021/06/26 04:26:12;;;;;;;1.70;1.60;;;16.70;98.00;;;;;;5070711;28;20465;-71
2021/06/26 04:28:40;;;;;;;1.40;1.30;;;16.80;98.00;;;;;;5068219;28;20517;-72
2021/06/26 04:31:07;;;;;;;1.40;1.37;;;16.70;98.00;;;;;;5071650;28;20819;-72
2021/06/26 04:33:34;;;;;;;1.57;1.47;;;16.60;98.00;;;;;;5068001;28;20953;-72
2021/06/26 04:36:05;;;;;;;5.33;1.63;;;16.60;98.00;;;;;;5071401;28;20460;-71
2021/06/26 04:38:32;;;;;;;1.93;1.70;;;16.70;98.00;;;;;;5067726;28;20547;-71
2021/06/26 04:40:59;;;;;;;1.70;1.30;;;16.50;98.00;;;;;;5071401;28;20612;-72
2021/06/26 04:43:26;;;;;;;2.43;1.60;;;16.50;98.00;;;;;;5068032;28;20859;-72
2021/06/26 04:45:54;;;;;;;3.80;1.93;;;16.70;98.00;;;;;;5071205;28;20530;-72
2021/06/26 04:48:21;;;;;;;4.33;2.00;;;16.70;98.00;;;;;;5067692;28;20558;-71
2021/06/26 04:50:48;;;;;;;1.60;1.50;;;16.60;98.00;;;;;;5070704;28;20566;-72
2021/06/26 04:53:15;;;;;;;1.60;1.57;;;16.60;98.00;;;;;;5068121;28;20457;-72
2021/06/26 04:55:51;;;;;;;1.40;1.20;;;16.70;98.00;;;;;;5071351;28;21063;-72
2021/06/26 04:58:18;;;;;;;1.80;1.70;;;16.80;98.00;;;;;;5068377;28;20460;-71
2021/06/26 05:00:45;;;;;;;2.03;1.80;;;16.80;98.00;;;;;;5070948;28;20463;-72
2021/06/26 05:03:14;;;;;;;3.00;1.60;;;16.80;98.00;;;;;;5068694;28;20818;-71
2021/06/26 05:05:41;;;;;;;4.07;1.80;;;16.70;98.00;;;;;;5071504;28;20452;-71
2021/06/26 05:08:08;;;;;;;1.67;1.43;;;16.80;98.00;;;;;;5068492;28;21000;-71
2021/06/26 05:10:35;;;;;;;3.27;1.47;;;16.60;98.00;;;;;;5070499;28;20489;-72
2021/06/26 05:13:10;;;;;;;3.37;1.53;;;16.50;98.00;;;;;;5068662;28;20460;-72
2021/06/26 05:15:37;;;;;;;1.27;1.17;;;16.60;98.00;;;;;;5073159;28;20858;-71
2021/06/26 05:18:05;;;;;;;1.53;1.50;;;16.70;98.00;;;;;;5072376;28;20456;-72
2021/06/26 05:20:33;;;;;;;2.50;1.33;;;16.90;98.00;;;;;;5074818;28;20493;-72
2021/06/26 05:23:09;;;;;;;1.73;1.47;;;17.10;98.00;;;;;;5072204;28;20883;-72
2021/06/26 05:25:36;;;;;;;1.53;1.47;;;17.00;98.00;;;;;;5074488;28;20531;-72
2021/06/26 05:28:03;;;;;;;1.60;1.50;;;17.00;98.00;;;;;;5071894;28;20456;-72
2021/06/26 05:30:30;;;;;;;1.33;1.27;;;16.90;98.00;;;;;;5074628;28;20518;-72
2021/06/26 05:32:59;;;;;;;2.17;1.93;;;17.00;98.00;;;;;;5072297;28;20468;-72
2021/06/26 05:35:26;;;;;;;2.13;1.80;;;17.20;98.00;;;;;;5073175;28;20464;-72
2021/06/26 05:37:55;;;;;;;2.70;1.93;;;17.10;98.00;;;;;;5071822;28;20513;-73
2021/06/26 05:40:23;;;;;;;1.60;1.60;;;16.90;98.00;;;;;;5074556;28;20460;-72
2021/06/26 05:42:50;;;;;;;1.80;1.70;;;17.00;98.00;;;;;;5071588;28;20877;-72
2021/06/26 05:45:17;;;;;;;1.83;1.50;;;16.90;98.00;;;;;;5073051;28;20843;-72
2021/06/26 05:47:48;;;;;;;1.50;1.47;;;16.90;98.00;;;;;;5071569;28;20452;-71
2021/06/26 05:50:15;;;;;;;1.60;1.40;;;16.90;98.00;;;;;;5074305;28;20547;-72
2021/06/26 05:52:50;;;;;;;2.13;1.93;;;17.00;98.00;;;;;;5071492;28;20852;-71
2021/06/26 05:55:19;;;;;;;2.13;1.50;;;17.00;98.00;;;;;;5074182;28;20517;-72
2021/06/26 05:57:47;;;;;;;1.67;1.40;;;17.00;98.00;;;;;;5071262;28;20459;-71
2021/06/26 06:00:17;;;;;;;2.17;1.83;;;17.00;98.00;;;;;;5074143;28;20533;-71
2021/06/26 06:02:45;;;;;;;2.90;1.63;;;17.30;98.00;;;;;;5071619;28;20555;-72
2021/06/26 06:05:13;;;;;;;3.70;1.60;;;17.40;98.00;;;;;;5074327;28;20554;-72
2021/06/26 06:07:41;;;;;;;1.50;1.40;;;17.50;98.00;;;;;;5071704;28;20909;-72
2021/06/26 06:10:10;;;;;;;2.80;2.27;;;17.50;98.00;;;;;;5074033;28;20486;-71
2021/06/26 06:12:40;;;;;;;1.60;1.50;;;17.50;98.00;;;;;;5071702;28;20483;-73
2021/06/26 06:15:08;;;;;;;2.07;1.87;;;17.60;98.00;;;;;;5074127;28;20488;-71
2021/06/26 06:17:36;;;;;;;2.27;1.50;;;17.60;98.00;;;;;;5071237;28;20452;-72
2021/06/26 06:20:04;;;;;;;2.17;1.70;;;17.70;98.00;;;;;;5073985;28;20457;-72
2021/06/26 06:22:32;;;;;;;2.13;1.83;;;17.70;98.00;;;;;;5071377;28;20477;-73
2021/06/26 06:24:59;;;;;;;3.23;2.13;;;17.80;98.00;;;;;;5073769;28;20506;-71
2021/06/26 06:27:26;;;;;;;6.00;2.10;;;17.90;98.00;;;;;;5070093;28;20460;-73
2021/06/26 06:29:55;;;;;;;2.63;1.70;;;18.10;98.00;;;;;;5073473;28;20539;-72
2021/06/26 06:32:23;;;;;;;2.10;1.70;;;18.20;98.00;;;;;;5071985;28;20485;-72
2021/06/26 06:34:50;;;;;;;2.70;1.97;;;18.30;98.00;;;;;;5073555;28;20959;-72
2021/06/26 06:37:18;;;;;;;1.40;1.37;;;18.30;98.00;;;;;;5073662;28;20449;-71
2021/06/26 06:39:45;;;;;;;2.87;2.03;;;18.20;98.00;;;;;;5071218;28;20499;-72
2021/06/26 06:42:12;;;;;;;2.43;1.80;;;18.20;98.00;;;;;;5073390;28;20874;-71
2021/06/26 06:44:39;;;;;;;1.97;1.57;;;18.40;98.00;;;;;;5070430;28;20449;-71
2021/06/26 06:47:07;;;;;;;2.37;1.90;;;18.50;98.00;;;;;;5071637;28;20453;-72
2021/06/26 06:49:34;;;;;;;3.07;1.70;;;18.70;98.00;;;;;;5070171;28;20492;-72
2021/06/26 06:52:01;;;;;;;2.50;1.80;;;18.90;98.00;;;;;;5073177;28;20477;-71
2021/06/26 06:54:28;;;;;;;1.50;1.33;;;19.00;98.00;;;;;;5070397;28;20457;-72
2021/06/26 06:56:55;;;;;;;2.47;2.17;;;19.10;98.00;;;;;;5073012;28;20867;-72
2021/06/26 06:59:23;;;;;;;2.30;1.87;;;19.20;98.00;;;;;;5069157;28;20492;-71
2021/06/26 07:01:50;;;;;;;2.13;1.80;;;19.30;98.00;;;;;;5072033;28;20460;-72
2021/06/26 07:04:18;;;;;;;1.50;1.47;;;19.40;98.00;;;;;;5070278;28;20489;-71
2021/06/26 07:06:45;;;;;;;1.93;1.57;;;19.50;98.00;;;;;;5073104;28;20465;-72
2021/06/26 07:09:12;;;;;;;3.63;2.23;;;19.60;98.00;;;;;;5070435;28;20530;-71
2021/06/26 07:11:39;;;;;;;3.00;1.90;;;19.60;98.00;;;;;;5072879;28;20516;-71
2021/06/26 07:14:07;;;;;;;2.23;1.77;;;19.70;98.00;;;;;;5069848;28;20878;-72
2021/06/26 07:16:34;;;;;;;2.60;2.10;;;19.80;98.00;;;;;;5072782;28;20514;-72
2021/06/26 07:19:01;;;;;;;1.73;1.63;;;19.80;98.00;;;;;;5068480;28;20998;-72
2021/06/26 07:21:30;;;;;;;2.00;1.90;;;19.90;98.00;;;;;;5071983;28;21172;-73
2021/06/26 07:23:57;;;;;;;3.27;2.20;;;19.80;98.00;;;;;;5069597;28;20464;-72
2021/06/26 07:26:25;;;;;;;2.77;2.17;;;19.80;98.00;;;;;;5071938;28;20930;-72
2021/06/26 07:28:55;;;;;;;3.50;1.73;;;19.80;98.00;;;;;;5069105;28;20546;-72
2021/06/26 07:31:22;;;;;;;2.00;1.70;;;19.80;98.00;;;;;;5071697;28;20543;-72
2021/06/26 07:33:49;;;;;;;2.40;2.00;;;19.90;98.00;;;;;;5069532;28;20530;-73
2021/06/26 07:36:16;;;;;;;1.40;1.20;;;20.00;98.00;;;;;;5072322;28;20449;-74
2021/06/26 07:38:45;;;;;;;1.93;1.63;;;20.30;98.00;;;;;;5069577;28;20461;-74
2021/06/26 07:41:12;;;;;;;1.67;1.57;;;20.50;98.00;;;;;;5072017;28;20967;-75
2021/06/26 07:43:39;;;;;;;1.60;1.50;;;20.70;98.00;;;;;;5068326;28;20456;-74
2021/06/26 07:46:06;;;;;;;2.40;2.20;;;21.00;98.00;;;;;;5072059;28;20456;-73
2021/06/26 07:48:34;;;;;;;2.00;1.73;;;21.20;98.00;;;;;;5069467;28;20459;-74
2021/06/26 07:51:01;;;;;;;2.10;1.43;;;21.30;98.00;;;;;;5071885;28;20453;-72
2021/06/26 07:53:28;;;;;;;3.90;1.90;;;21.20;98.00;;;;;;5069101;28;20548;-74
2021/06/26 07:55:57;;;;;;;2.37;1.73;;;21.10;98.00;;;;;;5071984;28;20511;-73
2021/06/26 07:58:27;;;;;;;1.93;1.83;;;21.00;98.00;;;;;;5069304;28;20455;-72
2021/06/26 08:00:57;;;;;;;3.30;2.07;;;21.00;98.00;;;;;;5071908;28;20457;-73
2021/06/26 08:03:25;;;;;;;2.63;1.87;;;21.10;98.00;;;;;;5069576;28;20508;-73
2021/06/26 08:05:53;;;;;;;3.10;2.43;;;21.30;98.00;;;;;;5071907;28;20448;-73
2021/06/26 08:08:21;;;;;;;2.43;1.80;;;21.40;98.00;;;;;;5069466;28;20514;-72
2021/06/26 08:10:49;;;;;;;2.37;2.10;;;21.50;98.00;;;;;;5071860;28;20553;-73
2021/06/26 08:13:18;;;;;;;2.63;2.27;;;21.50;98.00;;;;;;5068989;28;20530;-73
2021/06/26 08:15:46;;;;;;;2.13;1.97;;;21.70;98.00;;;;;;5071616;28;20524;-72
2021/06/26 08:18:14;;;;;;;2.80;1.80;;;21.90;98.00;;;;;;5069081;28;20453;-73
2021/06/26 08:20:41;;;;;;;2.00;1.77;;;22.00;98.00;;;;;;5071694;28;20935;-73
2021/06/26 08:23:09;;;;;;;2.37;1.70;;;22.10;98.00;;;;;;5068804;28;20460;-72
2021/06/26 08:25:37;;;;;;;1.93;1.53;;;22.10;98.00;;;;;;5071573;28;20507;-74
2021/06/26 08:28:04;;;;;;;3.10;2.00;;;22.10;98.00;;;;;;5068965;28;20521;-73
2021/06/26 08:30:33;;;;;;;2.50;1.80;;;22.20;98.00;;;;;;5071325;28;21056;-73
2021/06/26 08:33:00;;;;;;;2.97;1.90;;;22.20;98.00;;;;;;5068408;28;20848;-73
2021/06/26 08:35:27;;;;;;;2.43;1.60;;;22.20;98.00;;;;;;5071585;28;20604;-73
2021/06/26 08:37:54;;;;;;;2.40;1.83;;;22.30;98.00;;;;;;5068428;28;20510;-73
2021/06/26 08:40:21;;;;;;;2.90;1.90;;;22.30;98.00;;;;;;5071568;28;20457;-73
2021/06/26 08:42:49;;;;;;;2.40;1.67;;;22.30;98.00;;;;;;5068889;28;20460;-73
2021/06/26 08:45:19;;;;;;;2.70;1.33;;;22.20;98.00;;;;;;5071498;28;20507;-73
2021/06/26 08:47:49;;;;;;;2.20;1.90;;;22.30;98.00;;;;;;5069030;28;20456;-73
2021/06/26 08:50:16;;;;;;;2.00;1.80;;;22.40;98.00;;;;;;5074411;28;21110;-74
2021/06/26 08:52:43;;;;;;;1.70;1.50;;;22.60;98.00;;;;;;5075100;28;21292;-73
2021/06/26 08:55:12;;;;;;;1.70;1.57;;;22.50;98.00;;;;;;5077968;28;20483;-72
2021/06/26 08:57:41;;;;;;;3.03;1.80;;;22.50;98.00;;;;;;5075118;28;20561;-73
2021/06/26 09:00:11;;;;;;;1.93;1.50;;;22.70;97.70;;;;;;5076363;28;20522;-73
2021/06/26 09:02:38;;;;;;;1.47;1.40;;;23.00;98.00;;;;;;5075374;28;20522;-73
2021/06/26 09:05:08;;;;;;;1.90;1.67;;;23.20;97.10;;;;;;5077968;28;20510;-74
2021/06/26 09:07:37;;;;;;;2.50;1.80;;;23.40;98.00;;;;;;5077939;28;20461;-73
2021/06/26 09:10:12;;;;;;;2.57;2.13;;;23.60;97.20;;;;;;5077688;28;20509;-73
2021/06/26 09:12:40;;;;;;;1.80;1.63;;;23.70;97.60;;;;;;5074830;28;20483;-72
2021/06/26 09:15:09;;;;;;;2.10;1.80;;;23.80;98.00;;;;;;5077737;28;20931;-72
2021/06/26 09:17:37;;;;;;;2.23;1.73;;;23.80;98.00;;;;;;5077499;28;20448;-72
2021/06/26 09:20:08;;;;;;;1.73;1.37;;;23.80;97.60;;;;;;5077783;28;20467;-73
2021/06/26 09:22:40;;;;;;;1.93;1.43;;;24.10;98.00;;;;;;5076126;28;20456;-75
2021/06/26 09:25:28;;;;;;;2.13;1.40;;;24.10;93.60;;;;;;5077173;28;20560;-73
2021/06/26 09:27:57;;;;;;;2.37;2.17;;;24.20;96.90;;;;;;5074163;28;20452;-73
2021/06/26 09:30:39;;;;;;;2.60;2.07;;;24.10;95.60;;;;;;5074657;28;20472;-73
2021/06/26 09:33:18;;;;;;;4.07;1.97;;;24.00;94.70;;;;;;5074375;28;20487;-73
2021/06/26 09:35:47;;;;;;;1.47;1.40;;;23.70;94.40;;;;;;5077167;28;20453;-73
2021/06/26 09:38:16;;;;;;;2.37;1.80;;;23.60;96.80;;;;;;5072589;28;20846;-73
2021/06/26 09:40:43;;;;;;;2.10;1.97;;;23.90;97.10;;;;;;5075785;28;20491;-72
2021/06/26 09:43:24;;;;;;;1.73;1.57;;;23.80;94.00;;;;;;5074141;28;20507;-73
2021/06/26 09:45:51;;;;;;;1.80;1.50;;;23.90;96.90;;;;;;5077250;28;20517;-73
2021/06/26 09:48:19;;;;;;;2.40;1.77;;;24.10;94.90;;;;;;5073132;28;20452;-73
2021/06/26 09:50:47;;;;;;;1.83;1.83;;;24.20;93.60;;;;;;5075642;28;20488;-73
2021/06/26 09:53:14;;;;;;;2.80;1.60;;;24.20;92.60;;;;;;5074885;28;20484;-72
2021/06/26 09:55:46;;;;;;;1.80;1.60;;;24.30;95.60;;;;;;5075552;28;20621;-72
2021/06/26 09:58:15;;;;;;;2.20;1.80;;;24.30;94.40;;;;;;5074313;28;20464;-73
2021/06/26 10:00:43;;;;;;;1.60;1.60;;;24.40;93.80;;;;;;5076625;28;20468;-74
2021/06/26 10:03:10;;;;;;;2.33;1.93;;;24.60;92.80;;;;;;5071238;28;20449;-73
2021/06/26 10:05:39;;;;;;;2.77;2.27;;;24.70;92.10;;;;;;5073638;28;20452;-72
2021/06/26 10:08:08;;;;;;;1.80;1.50;;;24.80;92.10;;;;;;5070854;28;20500;-73
2021/06/26 10:10:39;;;;;;;1.77;1.67;;;24.80;89.60;;;;;;5073762;28;20490;-72
2021/06/26 10:13:06;;;;;;;1.70;1.60;;;24.80;92.10;;;;;;5070851;28;20487;-73
2021/06/26 10:15:35;;;;;;;1.83;1.70;;;24.60;91.30;;;;;;5073498;28;20495;-72
2021/06/26 10:18:02;;;;;;;2.43;1.70;;;24.50;93.50;;;;;;5070686;28;20453;-72
2021/06/26 10:20:30;;;;;;;2.30;2.00;;;24.50;94.10;;;;;;5073453;28;20516;-73
2021/06/26 10:22:59;;;;;;;2.33;1.70;;;24.40;94.60;;;;;;5069600;28;20449;-73
2021/06/26 10:25:34;;;;;;;1.93;1.70;;;24.50;93.80;;;;;;5073401;28;20518;-73
2021/06/26 10:28:07;;;;;;;2.60;1.57;;;24.60;96.30;;;;;;5070260;28;20448;-72
2021/06/26 10:30:35;;;;;;;2.20;1.70;;;25.00;94.40;;;;;;5073043;28;20519;-70
2021/06/26 10:33:04;;;;;;;2.70;1.93;;;25.30;92.30;;;;;;5070460;28;20489;-71
2021/06/26 10:35:33;;;;;;;1.50;1.30;;;25.70;92.00;;;;;;5073237;28;20461;-72
2021/06/26 10:38:07;;;;;;;2.33;1.60;;;26.00;93.50;;;;;;5069940;28;20951;-73
2021/06/26 10:40:41;;;;;;;2.13;2.00;;;26.20;90.60;;;;;;5073601;28;20464;-72
2021/06/26 10:43:21;;;;;;;2.90;2.00;;;26.40;88.00;;;;;;5070318;28;20522;-72
2021/06/26 10:45:49;;;;;;;2.33;1.70;;;26.60;89.90;;;;;;5073395;28;20464;-73
2021/06/26 10:48:18;;;;;;;1.63;1.50;;;26.50;90.20;;;;;;5070197;28;20453;-72
2021/06/26 10:50:50;;;;;;;1.70;1.40;;;26.10;88.40;;;;;;5073069;28;21168;-73
2021/06/26 10:53:29;;;;;;;1.70;1.60;;;25.70;90.00;;;;;;5070244;28;20524;-72
2021/06/26 10:56:05;;;;;;;2.40;1.63;;;25.60;93.60;;;;;;5072883;28;20909;-74
2021/06/26 10:58:36;;;;;;;2.07;1.97;;;25.40;92.30;;;;;;5070116;28;20463;-73
2021/06/26 11:01:14;;;;;;;1.87;1.60;;;25.20;91.40;;;;;;5071265;28;21145;-72
2021/06/26 11:03:45;;;;;;;2.10;1.70;;;25.10;90.30;;;;;;5070178;28;20456;-71
2021/06/26 11:06:17;;;;;;;2.50;1.90;;;25.30;91.50;;;;;;5072607;28;20471;-73
2021/06/26 11:08:59;;;;;;;2.70;1.83;;;25.40;91.90;;;;;;5070253;28;20457;-72
2021/06/26 11:11:32;;;;;;;1.60;1.50;;;25.50;92.00;;;;;;5072702;28;20456;-73
2021/06/26 11:14:13;;;;;;;3.60;1.70;;;26.00;89.90;;;;;;5069127;28;20514;-72
2021/06/26 11:16:47;;;;;;;2.40;2.00;;;26.20;88.30;;;;;;5072171;28;20457;-73
2021/06/26 11:19:14;;;;;;;1.90;1.63;;;26.00;90.40;;;;;;5069360;28;20970;-73
2021/06/26 11:21:46;;;;;;;2.13;1.73;;;25.80;90.70;;;;;;5072059;28;20452;-72
2021/06/26 11:24:33;;;;;;;2.00;1.93;;;25.70;90.40;;;;;;5069313;28;20464;-73
2021/06/26 11:27:02;;;;;;;1.63;1.63;;;25.70;90.90;;;;;;5070304;28;20492;-73
2021/06/26 11:29:32;;;;;;;1.77;1.50;;;25.60;90.60;;;;;;5068668;28;20866;-73
2021/06/26 11:32:00;;;;;;;3.60;2.00;;;25.60;90.50;;;;;;5071090;28;20866;-74
2021/06/26 11:34:28;;;;;;;3.63;2.23;;;25.60;90.00;;;;;;5069055;28;20542;-73
2021/06/26 11:36:57;;;;;;;1.90;1.40;;;25.80;88.10;;;;;;5071588;28;20468;-72
2021/06/26 11:39:24;;;;;;;2.10;1.60;;;26.20;88.60;;;;;;5068915;28;20485;-73
2021/06/26 11:41:52;;;;;;;2.40;1.73;;;26.20;90.50;;;;;;5071898;28;20453;-72
2021/06/26 11:44:34;;;;;;;1.97;1.40;;;26.00;88.40;;;;;;5068284;28;20534;-72
2021/06/26 11:47:06;;;;;;;2.17;1.73;;;25.60;89.30;;;;;;5069745;28;20858;-73
2021/06/26 11:49:41;;;;;;;1.77;1.53;;;25.50;90.60;;;;;;5068232;28;20513;-72
2021/06/26 11:52:10;;;;;;;4.03;2.57;;;25.40;89.30;;;;;;5070987;28;20510;-73
2021/06/26 11:54:38;;;;;;;2.27;1.90;;;25.20;91.30;;;;;;5068105;28;20465;-72
2021/06/26 11:57:08;;;;;;;1.90;1.60;;;25.20;90.00;;;;;;5069822;28;20452;-73
2021/06/26 11:59:45;;;;;;;1.80;1.53;;;25.20;90.60;;;;;;5068018;28;20457;-73
2021/06/26 12:02:14;;;;;;;1.63;1.60;;;25.40;90.50;;;;;;5071285;28;21142;-73
2021/06/26 12:04:42;;;;;;;1.50;1.43;;;25.50;92.60;;;;;;5068609;28;20506;-73
2021/06/26 12:07:11;;;;;;;1.90;1.47;;;25.70;88.80;;;;;;5070927;28;20453;-73
2021/06/26 12:09:41;;;;;;;1.70;1.43;;;25.70;89.50;;;;;;5067905;28;20488;-72
2021/06/26 12:12:10;;;;;;;1.90;1.67;;;25.60;92.10;;;;;;5071506;28;20597;-72
2021/06/26 12:14:39;;;;;;;1.67;1.63;;;25.60;90.10;;;;;;5066609;28;20519;-73
2021/06/26 12:17:10;;;;;;;1.50;1.40;;;25.80;89.10;;;;;;5069692;28;20538;-72
2021/06/26 12:19:37;;;;;;;1.40;1.40;;;26.40;88.80;;;;;;5066863;28;20905;-72
2021/06/26 12:22:06;;;;;;;2.27;2.07;;;26.90;90.60;;;;;;5070067;28;20453;-73
2021/06/26 12:24:35;;;;;;;2.10;1.60;;;27.20;86.60;;;;;;5066745;28;20452;-72
2021/06/26 12:27:06;;;;;;;2.10;1.67;;;27.60;85.00;;;;;;5070961;28;20542;-75
2021/06/26 12:29:34;;;;;;;2.50;2.07;;;28.00;84.40;;;;;;5068467;28;20518;-72
2021/06/26 12:32:03;;;;;;;1.60;1.50;;;28.10;83.20;;;;;;5071032;28;20496;-72
2021/06/26 12:34:46;;;;;;;1.97;1.67;;;28.10;83.80;;;;;;5067950;28;20553;-73
2021/06/26 12:37:14;;;;;;;2.40;1.70;;;28.10;83.60;;;;;;5071239;28;20457;-73
2021/06/26 12:39:42;;;;;;;2.60;1.83;;;27.90;84.40;;;;;;5068365;28;20522;-73
2021/06/26 12:42:12;;;;;;;3.03;1.90;;;27.70;84.20;;;;;;5071298;28;20793;-74
2021/06/26 12:44:41;;;;;;;2.37;1.77;;;27.60;83.80;;;;;;5067950;28;20527;-73
2021/06/26 12:47:12;;;;;;;2.57;1.93;;;27.60;85.60;;;;;;5069924;28;20552;-75
2021/06/26 12:49:40;;;;;;;1.90;1.80;;;27.50;85.10;;;;;;5068401;28;20493;-75
2021/06/26 12:52:15;;;;;;;1.57;1.40;;;27.30;85.50;;;;;;5070738;28;20460;-74
2021/06/26 12:54:52;;;;;;;1.80;1.40;;;27.40;86.50;;;;;;5068434;28;21034;-76
2021/06/26 12:57:23;;;;;;;2.80;1.93;;;27.50;83.00;;;;;;5070607;28;20460;-74
2021/06/26 12:59:50;;;;;;;2.80;1.90;;;27.70;81.70;;;;;;5067437;28;20457;-77